sensor_id;sensor_type;location;lat;lon;timestamp;P1;durP1;ratioP1;P2;durP2;ratioP2
20084;SDS011;10202;48.474;9.138;2023-04-24T00:01:38;0.57;;;0.57;;
20084;SDS011;10202;48.474;9.138;2023-04-24T00:04:07;1.60;;;0.70;;
20084;SDS011;10202;48.474;9.138;2023-04-24T00:06:37;0.88;;;0.60;;
20084;SDS011;10202;48.474;9.138;2023-04-24T00:09:03;3.20;;;0.80;;
20084;SDS011;10202;48.474;9.138;2023-04-24T00:11:31;1.35;;;0.80;;
20084;SDS011;10202;48.474;9.138;2023-04-24T00:13:59;1.35;;;0.80;;
20084;SDS011;10202;48.474;9.138;2023-04-24T00:16:25;1.65;;;0.70;;
20084;SDS011;10202;48.474;9.138;2023-04-24T00:18:53;2.17;;;0.73;;
20084;SDS011;10202;48.474;9.138;2023-04-24T00:21:22;0.95;;;0.73;;
20084;SDS011;10202;48.474;9.138;2023-04-24T00:23:54;0.60;;;0.60;;
20084;SDS011;10202;48.474;9.138;2023-04-24T00:26:25;1.55;;;0.80;;
20084;SDS011;10202;48.474;9.138;2023-04-24T00:28:55;0.88;;;0.60;;
20084;SDS011;10202;48.474;9.138;2023-04-24T00:31:28;1.85;;;0.60;;
20084;SDS011;10202;48.474;9.138;2023-04-24T00:33:57;0.85;;;0.60;;
20084;SDS011;10202;48.474;9.138;2023-04-24T00:36:25;5.13;;;0.70;;
20084;SDS011;10202;48.474;9.138;2023-04-24T00:38:55;1.17;;;0.55;;
20084;SDS011;10202;48.474;9.138;2023-04-24T00:41:25;0.70;;;0.43;;
20084;SDS011;10202;48.474;9.138;2023-04-24T00:43:51;0.80;;;0.40;;
20084;SDS011;10202;48.474;9.138;2023-04-24T00:46:21;0.40;;;0.40;;
20084;SDS011;10202;48.474;9.138;2023-04-24T00:48:47;2.00;;;0.50;;
20084;SDS011;10202;48.474;9.138;2023-04-24T00:51:13;0.90;;;0.60;;
20084;SDS011;10202;48.474;9.138;2023-04-24T00:53:40;0.65;;;0.60;;
20084;SDS011;10202;48.474;9.138;2023-04-24T00:56:13;0.68;;;0.65;;
20084;SDS011;10202;48.474;9.138;2023-04-24T00:58:39;1.65;;;0.65;;
20084;SDS011;10202;48.474;9.138;2023-04-24T01:01:05;2.58;;;0.70;;
20084;SDS011;10202;48.474;9.138;2023-04-24T01:03:34;2.03;;;0.60;;
20084;SDS011;10202;48.474;9.138;2023-04-24T01:06:04;1.45;;;0.68;;
20084;SDS011;10202;48.474;9.138;2023-04-24T01:11:56;1.42;;;0.73;;
20084;SDS011;10202;48.474;9.138;2023-04-24T01:14:25;4.00;;;0.63;;
20084;SDS011;10202;48.474;9.138;2023-04-24T01:16:50;1.45;;;0.93;;
20084;SDS011;10202;48.474;9.138;2023-04-24T01:19:19;0.95;;;0.73;;
20084;SDS011;10202;48.474;9.138;2023-04-24T01:21:45;1.95;;;0.70;;
20084;SDS011;10202;48.474;9.138;2023-04-24T01:24:16;1.27;;;0.70;;
20084;SDS011;10202;48.474;9.138;2023-04-24T01:26:44;0.75;;;0.70;;
20084;SDS011;10202;48.474;9.138;2023-04-24T01:29:10;1.80;;;0.70;;
20084;SDS011;10202;48.474;9.138;2023-04-24T01:31:42;1.30;;;0.80;;
20084;SDS011;10202;48.474;9.138;2023-04-24T01:34:10;2.45;;;0.85;;
20084;SDS011;10202;48.474;9.138;2023-04-24T01:36:38;2.10;;;0.80;;
20084;SDS011;10202;48.474;9.138;2023-04-24T01:39:06;0.80;;;0.65;;
20084;SDS011;10202;48.474;9.138;2023-04-24T01:41:35;3.25;;;0.68;;
20084;SDS011;10202;48.474;9.138;2023-04-24T01:44:03;0.70;;;0.65;;
20084;SDS011;10202;48.474;9.138;2023-04-24T01:46:31;1.50;;;0.80;;
20084;SDS011;10202;48.474;9.138;2023-04-24T01:49:03;3.22;;;0.60;;
20084;SDS011;10202;48.474;9.138;2023-04-24T01:51:33;0.50;;;0.50;;
20084;SDS011;10202;48.474;9.138;2023-04-24T01:54:03;5.43;;;0.80;;
20084;SDS011;10202;48.474;9.138;2023-04-24T01:56:34;0.82;;;0.63;;
20084;SDS011;10202;48.474;9.138;2023-04-24T01:59:03;2.60;;;0.60;;
20084;SDS011;10202;48.474;9.138;2023-04-24T02:01:34;1.23;;;0.68;;
20084;SDS011;10202;48.474;9.138;2023-04-24T02:04:01;3.42;;;0.70;;
20084;SDS011;10202;48.474;9.138;2023-04-24T02:06:29;2.55;;;0.68;;
20084;SDS011;10202;48.474;9.138;2023-04-24T02:09:02;2.42;;;0.95;;
20084;SDS011;10202;48.474;9.138;2023-04-24T02:11:28;0.85;;;0.73;;
20084;SDS011;10202;48.474;9.138;2023-04-24T02:13:54;0.93;;;0.60;;
20084;SDS011;10202;48.474;9.138;2023-04-24T02:16:20;0.60;;;0.60;;
20084;SDS011;10202;48.474;9.138;2023-04-24T02:18:45;1.73;;;0.88;;
20084;SDS011;10202;48.474;9.138;2023-04-24T02:21:16;2.05;;;0.50;;
20084;SDS011;10202;48.474;9.138;2023-04-24T02:23:41;1.48;;;0.70;;
20084;SDS011;10202;48.474;9.138;2023-04-24T02:26:15;2.05;;;0.77;;
20084;SDS011;10202;48.474;9.138;2023-04-24T02:28:43;0.98;;;0.70;;
20084;SDS011;10202;48.474;9.138;2023-04-24T02:31:13;1.40;;;0.70;;
20084;SDS011;10202;48.474;9.138;2023-04-24T02:33:43;1.27;;;0.70;;
20084;SDS011;10202;48.474;9.138;2023-04-24T02:36:14;0.65;;;0.65;;
20084;SDS011;10202;48.474;9.138;2023-04-24T02:38:42;1.38;;;0.60;;
20084;SDS011;10202;48.474;9.138;2023-04-24T02:41:08;6.72;;;0.75;;
20084;SDS011;10202;48.474;9.138;2023-04-24T02:43:38;1.08;;;0.68;;
20084;SDS011;10202;48.474;9.138;2023-04-24T02:46:04;1.08;;;0.60;;
20084;SDS011;10202;48.474;9.138;2023-04-24T02:48:34;2.97;;;0.95;;
20084;SDS011;10202;48.474;9.138;2023-04-24T02:51:04;2.10;;;0.90;;
20084;SDS011;10202;48.474;9.138;2023-04-24T02:53:34;2.08;;;0.70;;
20084;SDS011;10202;48.474;9.138;2023-04-24T02:55:59;2.05;;;0.55;;
20084;SDS011;10202;48.474;9.138;2023-04-24T02:58:27;2.88;;;0.77;;
20084;SDS011;10202;48.474;9.138;2023-04-24T03:00:58;1.05;;;0.50;;
20084;SDS011;10202;48.474;9.138;2023-04-24T03:03:30;2.28;;;0.63;;
20084;SDS011;10202;48.474;9.138;2023-04-24T03:05:58;0.70;;;0.68;;
20084;SDS011;10202;48.474;9.138;2023-04-24T03:08:29;1.60;;;0.70;;
20084;SDS011;10202;48.474;9.138;2023-04-24T03:10:54;2.75;;;0.52;;
20084;SDS011;10202;48.474;9.138;2023-04-24T03:13:23;1.83;;;0.75;;
20084;SDS011;10202;48.474;9.138;2023-04-24T03:15:50;3.95;;;0.80;;
20084;SDS011;10202;48.474;9.138;2023-04-24T03:18:19;1.08;;;0.80;;
20084;SDS011;10202;48.474;9.138;2023-04-24T03:20:51;3.13;;;1.08;;
20084;SDS011;10202;48.474;9.138;2023-04-24T03:23:24;0.93;;;0.77;;
20084;SDS011;10202;48.474;9.138;2023-04-24T03:25:54;1.27;;;0.77;;
20084;SDS011;10202;48.474;9.138;2023-04-24T03:28:20;2.40;;;0.90;;
20084;SDS011;10202;48.474;9.138;2023-04-24T03:30:58;2.78;;;0.90;;
20084;SDS011;10202;48.474;9.138;2023-04-24T03:33:32;1.08;;;0.90;;
20084;SDS011;10202;48.474;9.138;2023-04-24T03:36:00;0.60;;;0.60;;
20084;SDS011;10202;48.474;9.138;2023-04-24T03:38:36;2.78;;;0.60;;
20084;SDS011;10202;48.474;9.138;2023-04-24T03:41:16;0.70;;;0.60;;
20084;SDS011;10202;48.474;9.138;2023-04-24T03:44:10;1.63;;;0.68;;
20084;SDS011;10202;48.474;9.138;2023-04-24T03:46:36;1.70;;;0.70;;
20084;SDS011;10202;48.474;9.138;2023-04-24T03:49:06;1.08;;;0.60;;
20084;SDS011;10202;48.474;9.138;2023-04-24T03:51:38;1.55;;;0.80;;
20084;SDS011;10202;48.474;9.138;2023-04-24T03:54:18;1.48;;;0.77;;
20084;SDS011;10202;48.474;9.138;2023-04-24T03:56:46;3.80;;;0.63;;
20084;SDS011;10202;48.474;9.138;2023-04-24T03:59:12;1.38;;;0.63;;
20084;SDS011;10202;48.474;9.138;2023-04-24T04:01:40;1.33;;;0.60;;
20084;SDS011;10202;48.474;9.138;2023-04-24T04:04:14;3.22;;;0.82;;
20084;SDS011;10202;48.474;9.138;2023-04-24T04:06:43;1.30;;;0.80;;
20084;SDS011;10202;48.474;9.138;2023-04-24T04:09:14;0.70;;;0.65;;
20084;SDS011;10202;48.474;9.138;2023-04-24T04:11:40;1.15;;;0.70;;
20084;SDS011;10202;48.474;9.138;2023-04-24T04:14:05;1.13;;;0.68;;
20084;SDS011;10202;48.474;9.138;2023-04-24T04:16:35;3.85;;;0.73;;
20084;SDS011;10202;48.474;9.138;2023-04-24T04:19:04;1.90;;;0.80;;
20084;SDS011;10202;48.474;9.138;2023-04-24T04:21:33;4.00;;;0.80;;
20084;SDS011;10202;48.474;9.138;2023-04-24T04:24:19;0.60;;;0.60;;
20084;SDS011;10202;48.474;9.138;2023-04-24T04:26:52;1.67;;;0.63;;
20084;SDS011;10202;48.474;9.138;2023-04-24T04:29:26;0.80;;;0.80;;
20084;SDS011;10202;48.474;9.138;2023-04-24T04:31:54;1.58;;;1.00;;
20084;SDS011;10202;48.474;9.138;2023-04-24T04:34:26;2.88;;;0.80;;
20084;SDS011;10202;48.474;9.138;2023-04-24T04:36:51;2.50;;;0.80;;
20084;SDS011;10202;48.474;9.138;2023-04-24T04:39:40;2.53;;;0.77;;
20084;SDS011;10202;48.474;9.138;2023-04-24T04:42:12;1.48;;;0.90;;
20084;SDS011;10202;48.474;9.138;2023-04-24T04:44:43;3.28;;;0.80;;
20084;SDS011;10202;48.474;9.138;2023-04-24T04:47:22;3.60;;;0.98;;
20084;SDS011;10202;48.474;9.138;2023-04-24T04:49:54;3.60;;;1.30;;
20084;SDS011;10202;48.474;9.138;2023-04-24T04:52:25;2.22;;;1.10;;
20084;SDS011;10202;48.474;9.138;2023-04-24T04:54:59;5.68;;;1.30;;
20084;SDS011;10202;48.474;9.138;2023-04-24T04:57:38;4.15;;;1.20;;
20084;SDS011;10202;48.474;9.138;2023-04-24T05:00:04;1.83;;;1.17;;
20084;SDS011;10202;48.474;9.138;2023-04-24T05:02:44;2.25;;;0.98;;
20084;SDS011;10202;48.474;9.138;2023-04-24T05:05:09;2.45;;;1.40;;
20084;SDS011;10202;48.474;9.138;2023-04-24T05:07:39;2.75;;;1.33;;
20084;SDS011;10202;48.474;9.138;2023-04-24T05:10:08;1.73;;;1.30;;
20084;SDS011;10202;48.474;9.138;2023-04-24T05:12:34;2.63;;;1.05;;
20084;SDS011;10202;48.474;9.138;2023-04-24T05:15:07;1.30;;;1.20;;
20084;SDS011;10202;48.474;9.138;2023-04-24T05:17:35;2.28;;;1.13;;
20084;SDS011;10202;48.474;9.138;2023-04-24T05:20:06;1.55;;;1.20;;
20084;SDS011;10202;48.474;9.138;2023-04-24T05:22:40;1.30;;;1.10;;
20084;SDS011;10202;48.474;9.138;2023-04-24T05:25:08;1.48;;;1.27;;
20084;SDS011;10202;48.474;9.138;2023-04-24T05:27:50;1.52;;;1.25;;
20084;SDS011;10202;48.474;9.138;2023-04-24T05:30:19;3.10;;;1.30;;
20084;SDS011;10202;48.474;9.138;2023-04-24T05:32:45;1.58;;;1.45;;
20084;SDS011;10202;48.474;9.138;2023-04-24T05:35:13;4.70;;;1.08;;
20084;SDS011;10202;48.474;9.138;2023-04-24T05:37:39;1.38;;;1.17;;
20084;SDS011;10202;48.474;9.138;2023-04-24T05:40:06;1.27;;;1.17;;
20084;SDS011;10202;48.474;9.138;2023-04-24T05:42:32;1.70;;;1.20;;
20084;SDS011;10202;48.474;9.138;2023-04-24T05:45:03;1.73;;;1.20;;
20084;SDS011;10202;48.474;9.138;2023-04-24T05:47:34;1.55;;;1.40;;
20084;SDS011;10202;48.474;9.138;2023-04-24T05:50:05;1.55;;;1.30;;
20084;SDS011;10202;48.474;9.138;2023-04-24T05:52:34;2.83;;;1.50;;
20084;SDS011;10202;48.474;9.138;2023-04-24T05:55:04;2.75;;;1.30;;
20084;SDS011;10202;48.474;9.138;2023-04-24T05:57:32;3.10;;;1.40;;
20084;SDS011;10202;48.474;9.138;2023-04-24T06:00:01;2.20;;;1.33;;
20084;SDS011;10202;48.474;9.138;2023-04-24T06:02:41;1.38;;;1.25;;
20084;SDS011;10202;48.474;9.138;2023-04-24T06:05:11;1.58;;;1.48;;
20084;SDS011;10202;48.474;9.138;2023-04-24T06:07:37;1.70;;;1.20;;
20084;SDS011;10202;48.474;9.138;2023-04-24T06:10:08;2.70;;;1.38;;
20084;SDS011;10202;48.474;9.138;2023-04-24T06:12:39;2.53;;;1.40;;
20084;SDS011;10202;48.474;9.138;2023-04-24T06:15:14;2.22;;;1.40;;
20084;SDS011;10202;48.474;9.138;2023-04-24T06:17:59;3.40;;;1.45;;
20084;SDS011;10202;48.474;9.138;2023-04-24T06:20:27;1.98;;;1.20;;
20084;SDS011;10202;48.474;9.138;2023-04-24T06:22:53;1.42;;;1.33;;
20084;SDS011;10202;48.474;9.138;2023-04-24T06:25:21;2.67;;;1.60;;
20084;SDS011;10202;48.474;9.138;2023-04-24T06:27:51;2.70;;;1.77;;
20084;SDS011;10202;48.474;9.138;2023-04-24T06:30:20;1.60;;;1.50;;
20084;SDS011;10202;48.474;9.138;2023-04-24T06:32:48;2.55;;;1.60;;
20084;SDS011;10202;48.474;9.138;2023-04-24T06:35:14;1.52;;;1.42;;
20084;SDS011;10202;48.474;9.138;2023-04-24T06:37:43;1.42;;;1.33;;
20084;SDS011;10202;48.474;9.138;2023-04-24T06:40:11;2.28;;;1.52;;
20084;SDS011;10202;48.474;9.138;2023-04-24T06:42:39;2.10;;;1.63;;
20084;SDS011;10202;48.474;9.138;2023-04-24T06:45:09;3.22;;;1.50;;
20084;SDS011;10202;48.474;9.138;2023-04-24T06:47:37;3.00;;;1.40;;
20084;SDS011;10202;48.474;9.138;2023-04-24T06:50:03;1.48;;;1.30;;
20084;SDS011;10202;48.474;9.138;2023-04-24T06:52:32;2.00;;;1.63;;
20084;SDS011;10202;48.474;9.138;2023-04-24T06:55:02;1.65;;;1.55;;
20084;SDS011;10202;48.474;9.138;2023-04-24T06:57:33;2.85;;;1.70;;
20084;SDS011;10202;48.474;9.138;2023-04-24T07:00:01;2.10;;;1.85;;
20084;SDS011;10202;48.474;9.138;2023-04-24T07:02:30;1.48;;;1.38;;
20084;SDS011;10202;48.474;9.138;2023-04-24T07:05:00;3.35;;;1.70;;
20084;SDS011;10202;48.474;9.138;2023-04-24T07:07:30;2.05;;;1.75;;
20084;SDS011;10202;48.474;9.138;2023-04-24T07:09:56;2.28;;;1.65;;
20084;SDS011;10202;48.474;9.138;2023-04-24T07:12:24;2.55;;;1.80;;
20084;SDS011;10202;48.474;9.138;2023-04-24T07:14:54;1.80;;;1.52;;
20084;SDS011;10202;48.474;9.138;2023-04-24T07:17:20;1.83;;;1.40;;
20084;SDS011;10202;48.474;9.138;2023-04-24T07:19:48;2.65;;;1.67;;
20084;SDS011;10202;48.474;9.138;2023-04-24T07:22:17;1.60;;;1.50;;
20084;SDS011;10202;48.474;9.138;2023-04-24T07:24:45;2.17;;;1.77;;
20084;SDS011;10202;48.474;9.138;2023-04-24T07:27:11;7.70;;;1.90;;
20084;SDS011;10202;48.474;9.138;2023-04-24T07:29:40;6.40;;;1.92;;
20084;SDS011;10202;48.474;9.138;2023-04-24T07:32:06;2.35;;;1.80;;
20084;SDS011;10202;48.474;9.138;2023-04-24T07:34:34;2.20;;;1.60;;
20084;SDS011;10202;48.474;9.138;2023-04-24T07:37:02;4.13;;;2.15;;
20084;SDS011;10202;48.474;9.138;2023-04-24T07:39:28;1.92;;;1.60;;
20084;SDS011;10202;48.474;9.138;2023-04-24T07:41:57;3.15;;;1.83;;
20084;SDS011;10202;48.474;9.138;2023-04-24T07:44:27;2.63;;;2.05;;
20084;SDS011;10202;48.474;9.138;2023-04-24T07:46:55;1.48;;;1.38;;
20084;SDS011;10202;48.474;9.138;2023-04-24T07:49:23;2.03;;;1.33;;
20084;SDS011;10202;48.474;9.138;2023-04-24T07:51:56;2.55;;;1.27;;
20084;SDS011;10202;48.474;9.138;2023-04-24T07:54:27;2.67;;;1.10;;
20084;SDS011;10202;48.474;9.138;2023-04-24T07:56:58;1.85;;;1.42;;
20084;SDS011;10202;48.474;9.138;2023-04-24T07:59:28;1.70;;;1.33;;
20084;SDS011;10202;48.474;9.138;2023-04-24T08:01:59;2.35;;;1.40;;
20084;SDS011;10202;48.474;9.138;2023-04-24T08:04:29;2.72;;;1.25;;
20084;SDS011;10202;48.474;9.138;2023-04-24T08:07:00;1.40;;;1.15;;
20084;SDS011;10202;48.474;9.138;2023-04-24T08:09:27;1.73;;;1.17;;
20084;SDS011;10202;48.474;9.138;2023-04-24T08:12:00;4.28;;;1.35;;
20084;SDS011;10202;48.474;9.138;2023-04-24T08:14:28;1.35;;;1.20;;
20084;SDS011;10202;48.474;9.138;2023-04-24T08:17:00;2.17;;;1.40;;
20084;SDS011;10202;48.474;9.138;2023-04-24T08:19:27;2.15;;;1.30;;
20084;SDS011;10202;48.474;9.138;2023-04-24T08:21:55;1.55;;;1.25;;
20084;SDS011;10202;48.474;9.138;2023-04-24T08:24:28;3.15;;;1.33;;
20084;SDS011;10202;48.474;9.138;2023-04-24T08:26:53;4.57;;;1.70;;
20084;SDS011;10202;48.474;9.138;2023-04-24T08:29:23;2.40;;;1.30;;
20084;SDS011;10202;48.474;9.138;2023-04-24T08:31:53;3.33;;;1.65;;
20084;SDS011;10202;48.474;9.138;2023-04-24T08:34:21;5.95;;;1.60;;
20084;SDS011;10202;48.474;9.138;2023-04-24T08:36:50;3.70;;;1.50;;
20084;SDS011;10202;48.474;9.138;2023-04-24T08:39:16;2.72;;;1.52;;
20084;SDS011;10202;48.474;9.138;2023-04-24T08:41:42;1.40;;;1.30;;
20084;SDS011;10202;48.474;9.138;2023-04-24T08:44:10;1.45;;;1.35;;
20084;SDS011;10202;48.474;9.138;2023-04-24T08:46:38;2.25;;;1.33;;
20084;SDS011;10202;48.474;9.138;2023-04-24T08:49:11;3.15;;;1.42;;
20084;SDS011;10202;48.474;9.138;2023-04-24T08:51:44;1.33;;;1.17;;
20084;SDS011;10202;48.474;9.138;2023-04-24T08:54:13;1.67;;;1.50;;
20084;SDS011;10202;48.474;9.138;2023-04-24T08:56:40;3.63;;;1.75;;
20084;SDS011;10202;48.474;9.138;2023-04-24T08:59:14;3.00;;;1.15;;
20084;SDS011;10202;48.474;9.138;2023-04-24T09:01:40;2.15;;;1.50;;
20084;SDS011;10202;48.474;9.138;2023-04-24T09:04:07;1.73;;;1.40;;
20084;SDS011;10202;48.474;9.138;2023-04-24T09:06:40;2.33;;;1.40;;
20084;SDS011;10202;48.474;9.138;2023-04-24T09:09:10;1.95;;;1.50;;
20084;SDS011;10202;48.474;9.138;2023-04-24T09:11:38;2.17;;;1.52;;
20084;SDS011;10202;48.474;9.138;2023-04-24T09:14:05;4.82;;;1.50;;
20084;SDS011;10202;48.474;9.138;2023-04-24T09:16:33;2.78;;;1.45;;
20084;SDS011;10202;48.474;9.138;2023-04-24T09:19:01;1.73;;;1.33;;
20084;SDS011;10202;48.474;9.138;2023-04-24T09:21:32;2.33;;;1.65;;
20084;SDS011;10202;48.474;9.138;2023-04-24T09:24:01;2.88;;;1.15;;
20084;SDS011;10202;48.474;9.138;2023-04-24T09:26:35;2.25;;;1.40;;
20084;SDS011;10202;48.474;9.138;2023-04-24T09:29:02;2.72;;;1.40;;
20084;SDS011;10202;48.474;9.138;2023-04-24T09:31:29;1.48;;;1.30;;
20084;SDS011;10202;48.474;9.138;2023-04-24T09:33:59;2.45;;;1.60;;
20084;SDS011;10202;48.474;9.138;2023-04-24T09:39:02;4.00;;;1.45;;
20084;SDS011;10202;48.474;9.138;2023-04-24T09:41:49;1.50;;;1.40;;
20084;SDS011;10202;48.474;9.138;2023-04-24T09:46:52;3.03;;;1.20;;
20084;SDS011;10202;48.474;9.138;2023-04-24T09:49:29;3.60;;;1.30;;
20084;SDS011;10202;48.474;9.138;2023-04-24T09:52:05;1.80;;;1.40;;
20084;SDS011;10202;48.474;9.138;2023-04-24T09:54:35;2.22;;;1.40;;
20084;SDS011;10202;48.474;9.138;2023-04-24T09:57:04;3.33;;;1.50;;
20084;SDS011;10202;48.474;9.138;2023-04-24T09:59:30;2.15;;;1.42;;
20084;SDS011;10202;48.474;9.138;2023-04-24T10:02:03;1.77;;;1.50;;
20084;SDS011;10202;48.474;9.138;2023-04-24T10:04:54;3.05;;;1.40;;
20084;SDS011;10202;48.474;9.138;2023-04-24T10:07:27;2.17;;;1.40;;
20084;SDS011;10202;48.474;9.138;2023-04-24T10:09:56;2.45;;;1.40;;
20084;SDS011;10202;48.474;9.138;2023-04-24T10:12:26;4.50;;;1.50;;
20084;SDS011;10202;48.474;9.138;2023-04-24T10:14:55;4.35;;;1.30;;
20084;SDS011;10202;48.474;9.138;2023-04-24T10:17:27;1.90;;;1.20;;
20084;SDS011;10202;48.474;9.138;2023-04-24T10:19:56;2.05;;;1.30;;
20084;SDS011;10202;48.474;9.138;2023-04-24T10:22:22;3.78;;;1.60;;
20084;SDS011;10202;48.474;9.138;2023-04-24T10:24:49;2.97;;;1.33;;
20084;SDS011;10202;48.474;9.138;2023-04-24T10:27:15;2.30;;;1.40;;
20084;SDS011;10202;48.474;9.138;2023-04-24T10:29:42;2.05;;;1.33;;
20084;SDS011;10202;48.474;9.138;2023-04-24T10:32:11;3.00;;;1.30;;
20084;SDS011;10202;48.474;9.138;2023-04-24T10:34:42;3.55;;;1.35;;
20084;SDS011;10202;48.474;9.138;2023-04-24T10:37:11;1.33;;;1.20;;
20084;SDS011;10202;48.474;9.138;2023-04-24T10:39:38;1.45;;;1.25;;
20084;SDS011;10202;48.474;9.138;2023-04-24T10:42:13;3.22;;;1.00;;
20084;SDS011;10202;48.474;9.138;2023-04-24T10:44:47;1.13;;;1.05;;
20084;SDS011;10202;48.474;9.138;2023-04-24T10:47:16;1.27;;;0.90;;
20084;SDS011;10202;48.474;9.138;2023-04-24T10:49:44;2.90;;;1.10;;
20084;SDS011;10202;48.474;9.138;2023-04-24T10:52:10;1.15;;;1.00;;
20084;SDS011;10202;48.474;9.138;2023-04-24T10:54:45;1.00;;;0.90;;
20084;SDS011;10202;48.474;9.138;2023-04-24T11:02:50;0.90;;;0.90;;
20084;SDS011;10202;48.474;9.138;2023-04-24T11:05:21;1.15;;;1.00;;
20084;SDS011;10202;48.474;9.138;2023-04-24T11:08:32;1.63;;;0.95;;
20084;SDS011;10202;48.474;9.138;2023-04-24T11:11:08;1.00;;;0.93;;
20084;SDS011;10202;48.474;9.138;2023-04-24T11:19:00;1.15;;;0.90;;
20084;SDS011;10202;48.474;9.138;2023-04-24T11:21:47;0.90;;;0.90;;
20084;SDS011;10202;48.474;9.138;2023-04-24T11:32:25;1.33;;;0.93;;
20084;SDS011;10202;48.474;9.138;2023-04-24T11:37:33;1.35;;;0.80;;
20084;SDS011;10202;48.474;9.138;2023-04-24T11:40:02;0.80;;;0.80;;
20084;SDS011;10202;48.474;9.138;2023-04-24T11:42:35;1.20;;;1.02;;
20084;SDS011;10202;48.474;9.138;2023-04-24T11:45:07;2.38;;;1.02;;
20084;SDS011;10202;48.474;9.138;2023-04-24T11:47:42;2.22;;;1.00;;
20084;SDS011;10202;48.474;9.138;2023-04-24T11:50:11;3.60;;;1.10;;
20084;SDS011;10202;48.474;9.138;2023-04-24T11:52:40;1.27;;;0.90;;
20084;SDS011;10202;48.474;9.138;2023-04-24T11:57:48;1.70;;;0.90;;
20084;SDS011;10202;48.474;9.138;2023-04-24T12:00:17;1.08;;;0.95;;
20084;SDS011;10202;48.474;9.138;2023-04-24T12:03:05;1.00;;;0.88;;
20084;SDS011;10202;48.474;9.138;2023-04-24T12:05:32;0.90;;;0.70;;
20084;SDS011;10202;48.474;9.138;2023-04-24T12:08:02;0.90;;;0.90;;
20084;SDS011;10202;48.474;9.138;2023-04-24T12:10:28;1.42;;;1.00;;
20084;SDS011;10202;48.474;9.138;2023-04-24T12:12:58;1.80;;;1.00;;
20084;SDS011;10202;48.474;9.138;2023-04-24T12:15:25;4.22;;;1.08;;
20084;SDS011;10202;48.474;9.138;2023-04-24T12:17:51;2.67;;;0.90;;
20084;SDS011;10202;48.474;9.138;2023-04-24T12:20:29;1.60;;;1.00;;
20084;SDS011;10202;48.474;9.138;2023-04-24T12:22:57;1.17;;;0.70;;
20084;SDS011;10202;48.474;9.138;2023-04-24T12:25:26;1.67;;;0.70;;
20084;SDS011;10202;48.474;9.138;2023-04-24T12:30:31;0.85;;;0.85;;
20084;SDS011;10202;48.474;9.138;2023-04-24T12:33:06;2.65;;;1.00;;
20084;SDS011;10202;48.474;9.138;2023-04-24T12:35:34;4.03;;;1.40;;
20084;SDS011;10202;48.474;9.138;2023-04-24T12:38:06;2.70;;;1.35;;
20084;SDS011;10202;48.474;9.138;2023-04-24T12:40:38;1.77;;;0.90;;
20084;SDS011;10202;48.474;9.138;2023-04-24T12:43:18;1.33;;;1.23;;
20084;SDS011;10202;48.474;9.138;2023-04-24T12:45:45;2.35;;;1.15;;
20084;SDS011;10202;48.474;9.138;2023-04-24T12:48:12;2.70;;;1.40;;
20084;SDS011;10202;48.474;9.138;2023-04-24T12:50:40;1.90;;;1.17;;
20084;SDS011;10202;48.474;9.138;2023-04-24T12:53:11;2.42;;;1.40;;
20084;SDS011;10202;48.474;9.138;2023-04-24T12:55:37;1.35;;;1.25;;
20084;SDS011;10202;48.474;9.138;2023-04-24T12:58:02;1.20;;;1.10;;
20084;SDS011;10202;48.474;9.138;2023-04-24T13:00:32;5.35;;;1.58;;
20084;SDS011;10202;48.474;9.138;2023-04-24T13:03:03;1.35;;;1.25;;
20084;SDS011;10202;48.474;9.138;2023-04-24T13:05:29;1.33;;;1.20;;
20084;SDS011;10202;48.474;9.138;2023-04-24T13:07:55;2.95;;;1.27;;
20084;SDS011;10202;48.474;9.138;2023-04-24T13:10:20;1.20;;;1.10;;
20084;SDS011;10202;48.474;9.138;2023-04-24T13:12:48;2.15;;;1.10;;
20084;SDS011;10202;48.474;9.138;2023-04-24T13:15:19;1.70;;;1.10;;
20084;SDS011;10202;48.474;9.138;2023-04-24T13:17:47;3.28;;;1.45;;
20084;SDS011;10202;48.474;9.138;2023-04-24T13:20:13;1.27;;;1.17;;
20084;SDS011;10202;48.474;9.138;2023-04-24T13:22:43;2.05;;;1.40;;
20084;SDS011;10202;48.474;9.138;2023-04-24T13:25:09;2.03;;;1.58;;
20084;SDS011;10202;48.474;9.138;2023-04-24T13:27:40;2.10;;;1.40;;
20084;SDS011;10202;48.474;9.138;2023-04-24T13:30:08;2.08;;;1.40;;
20084;SDS011;10202;48.474;9.138;2023-04-24T13:32:35;2.28;;;1.23;;
20084;SDS011;10202;48.474;9.138;2023-04-24T13:35:03;1.20;;;1.10;;
20084;SDS011;10202;48.474;9.138;2023-04-24T13:37:31;1.33;;;1.23;;
20084;SDS011;10202;48.474;9.138;2023-04-24T13:40:00;5.72;;;1.27;;
20084;SDS011;10202;48.474;9.138;2023-04-24T13:42:25;1.20;;;1.10;;
20084;SDS011;10202;48.474;9.138;2023-04-24T13:44:51;1.30;;;1.20;;
20084;SDS011;10202;48.474;9.138;2023-04-24T13:47:19;2.30;;;1.23;;
20084;SDS011;10202;48.474;9.138;2023-04-24T13:49:47;5.28;;;1.30;;
20084;SDS011;10202;48.474;9.138;2023-04-24T13:52:15;1.70;;;1.08;;
20084;SDS011;10202;48.474;9.138;2023-04-24T13:54:44;1.15;;;1.05;;
20084;SDS011;10202;48.474;9.138;2023-04-24T13:57:09;1.95;;;1.13;;
20084;SDS011;10202;48.474;9.138;2023-04-24T13:59:38;4.47;;;1.30;;
20084;SDS011;10202;48.474;9.138;2023-04-24T14:02:07;3.70;;;1.10;;
20084;SDS011;10202;48.474;9.138;2023-04-24T14:04:40;2.05;;;1.20;;
20084;SDS011;10202;48.474;9.138;2023-04-24T14:07:10;2.80;;;1.20;;
20084;SDS011;10202;48.474;9.138;2023-04-24T14:09:41;1.92;;;1.20;;
20084;SDS011;10202;48.474;9.138;2023-04-24T14:12:06;2.55;;;1.10;;
20084;SDS011;10202;48.474;9.138;2023-04-24T14:14:36;1.40;;;1.30;;
20084;SDS011;10202;48.474;9.138;2023-04-24T14:17:02;1.60;;;1.15;;
20084;SDS011;10202;48.474;9.138;2023-04-24T14:19:32;1.58;;;1.30;;
20084;SDS011;10202;48.474;9.138;2023-04-24T14:22:00;1.48;;;1.25;;
20084;SDS011;10202;48.474;9.138;2023-04-24T14:24:30;3.60;;;1.33;;
20084;SDS011;10202;48.474;9.138;2023-04-24T14:26:58;5.03;;;1.40;;
20084;SDS011;10202;48.474;9.138;2023-04-24T14:29:29;3.42;;;1.38;;
20084;SDS011;10202;48.474;9.138;2023-04-24T14:31:54;1.77;;;1.13;;
20084;SDS011;10202;48.474;9.138;2023-04-24T14:34:24;3.15;;;1.30;;
20084;SDS011;10202;48.474;9.138;2023-04-24T14:36:52;1.30;;;1.20;;
20084;SDS011;10202;48.474;9.138;2023-04-24T14:39:18;2.55;;;1.35;;
20084;SDS011;10202;48.474;9.138;2023-04-24T14:41:49;1.75;;;1.20;;
20084;SDS011;10202;48.474;9.138;2023-04-24T14:44:22;1.35;;;1.25;;
20084;SDS011;10202;48.474;9.138;2023-04-24T14:46:48;1.80;;;1.35;;
20084;SDS011;10202;48.474;9.138;2023-04-24T14:49:19;1.30;;;1.20;;
20084;SDS011;10202;48.474;9.138;2023-04-24T14:51:44;3.60;;;1.55;;
20084;SDS011;10202;48.474;9.138;2023-04-24T14:54:12;1.58;;;1.20;;
20084;SDS011;10202;48.474;9.138;2023-04-24T14:56:38;1.40;;;1.30;;
20084;SDS011;10202;48.474;9.138;2023-04-24T14:59:08;1.38;;;1.27;;
20084;SDS011;10202;48.474;9.138;2023-04-24T15:01:34;2.47;;;1.35;;
20084;SDS011;10202;48.474;9.138;2023-04-24T15:03:59;1.33;;;1.20;;
20084;SDS011;10202;48.474;9.138;2023-04-24T15:06:33;1.70;;;1.23;;
20084;SDS011;10202;48.474;9.138;2023-04-24T15:09:01;1.30;;;1.20;;
20084;SDS011;10202;48.474;9.138;2023-04-24T15:11:27;1.50;;;1.40;;
20084;SDS011;10202;48.474;9.138;2023-04-24T15:13:55;2.15;;;1.60;;
20084;SDS011;10202;48.474;9.138;2023-04-24T15:16:24;2.33;;;1.48;;
20084;SDS011;10202;48.474;9.138;2023-04-24T15:18:57;1.80;;;1.30;;
20084;SDS011;10202;48.474;9.138;2023-04-24T15:21:22;1.67;;;1.23;;
20084;SDS011;10202;48.474;9.138;2023-04-24T15:23:53;1.35;;;1.20;;
20084;SDS011;10202;48.474;9.138;2023-04-24T15:26:22;1.50;;;1.40;;
20084;SDS011;10202;48.474;9.138;2023-04-24T15:28:48;1.58;;;1.15;;
20084;SDS011;10202;48.474;9.138;2023-04-24T15:31:14;1.90;;;1.20;;
20084;SDS011;10202;48.474;9.138;2023-04-24T15:33:42;2.67;;;1.40;;
20084;SDS011;10202;48.474;9.138;2023-04-24T15:36:07;2.63;;;1.38;;
20084;SDS011;10202;48.474;9.138;2023-04-24T15:38:33;2.22;;;1.15;;